Time;durP1;ratioP1;P1;durP2;ratioP2;P2;SDS_P1;SDS_P2;PMS_P1;PMS_P2;Temp;Humidity;BMP_temperature;BMP_pressure;BME280_temperature;BME280_humidity;BME280_pressure;Samples;Min_cycle;Max_cycle;Signal;HPM_P1;HPM_P2
2021/12/01 00:01:58;;;;;;;1.67;0.93;;;1.70;96.30;;;;;;4880944;29;20256;-77
2021/12/01 00:04:23;;;;;;;4.43;1.00;;;1.70;96.30;;;;;;4881023;29;20181;-77
2021/12/01 00:06:49;;;;;;;6.07;0.93;;;1.70;96.30;;;;;;4880629;29;20680;-77
2021/12/01 00:09:14;;;;;;;1.20;0.80;;;1.70;96.30;;;;;;4880886;29;20194;-77
2021/12/01 00:11:40;;;;;;;2.57;0.80;;;1.70;96.30;;;;;;4881346;29;20211;-77
2021/12/01 00:14:05;;;;;;;4.73;3.57;;;1.70;96.30;;;;;;4880932;29;20264;-77
2021/12/01 00:16:31;;;;;;;2.20;0.80;;;1.70;96.30;;;;;;4880394;29;20210;-77
2021/12/01 00:18:56;;;;;;;2.40;0.73;;;1.70;96.30;;;;;;4880670;29;20181;-77
2021/12/01 00:21:22;;;;;;;1.17;0.70;;;1.70;96.30;;;;;;4880817;29;20694;-77
2021/12/01 00:23:47;;;;;;;1.00;0.60;;;1.70;96.30;;;;;;4880720;29;20174;-77
2021/12/01 00:26:13;;;;;;;1.47;0.70;;;1.70;96.30;;;;;;4880359;29;20202;-77
2021/12/01 00:28:38;;;;;;;1.67;0.87;;;1.70;96.30;;;;;;4887240;29;20656;-77
2021/12/01 00:31:04;;;;;;;0.90;0.50;;;1.70;96.30;;;;;;4899175;29;20183;-77
2021/12/01 00:33:30;;;;;;;1.20;0.80;;;1.70;96.30;;;;;;4897872;29;20187;-77
2021/12/01 00:35:57;;;;;;;1.20;0.60;;;1.70;96.30;;;;;;4898650;29;20516;-76
2021/12/01 00:38:24;;;;;;;1.00;0.80;;;1.70;96.30;;;;;;4897880;29;20213;-76
2021/12/01 00:40:50;;;;;;;0.90;0.70;;;1.80;96.30;;;;;;4899149;29;20461;-77
2021/12/01 00:43:17;;;;;;;0.80;0.60;;;1.70;96.30;;;;;;4898986;29;20417;-77
2021/12/01 00:45:57;;;;;;;2.10;0.63;;;1.70;96.30;;;;;;4898792;29;20791;-77
2021/12/01 00:48:24;;;;;;;1.63;0.60;;;1.70;96.30;;;;;;4897818;29;20429;-77
2021/12/01 00:50:51;;;;;;;0.80;0.60;;;1.70;96.30;;;;;;4897566;29;20426;-78
2021/12/01 00:53:16;;;;;;;0.90;0.73;;;1.70;96.30;;;;;;4899211;29;20448;-78
2021/12/01 00:55:43;;;;;;;1.10;0.70;;;1.70;96.30;;;;;;4897314;29;20885;-78
2021/12/01 00:58:11;;;;;;;1.30;0.80;;;1.70;96.30;;;;;;4897629;29;20197;-78
2021/12/01 05:00:21;;;;;;;0.73;0.40;;;3.10;96.30;;;;;;5953678;23;21410;-80
2021/12/01 05:02:47;;;;;;;0.80;0.50;;;3.20;96.30;;;;;;4860881;29;20968;-79
2021/12/01 05:05:13;;;;;;;1.00;0.53;;;3.20;96.30;;;;;;4861373;29;20423;-79
2021/12/01 05:07:39;;;;;;;0.80;0.43;;;3.20;96.30;;;;;;4859564;29;20434;-79
2021/12/01 05:10:06;;;;;;;0.90;0.50;;;3.20;96.30;;;;;;4861333;29;20407;-78
2021/12/01 05:12:31;;;;;;;0.70;0.40;;;3.30;96.30;;;;;;4861123;29;20205;-78
2021/12/01 05:14:57;;;;;;;1.27;0.57;;;3.30;96.30;;;;;;4862059;29;20411;-77
2021/12/01 05:17:22;;;;;;;0.80;0.40;;;3.30;96.30;;;;;;4860905;29;20217;-78
2021/12/01 05:19:48;;;;;;;0.80;0.40;;;3.30;96.30;;;;;;4860301;29;20180;-78
2021/12/01 05:24:49;;;;;;;0.80;0.40;;;3.40;96.30;;;;;;5497741;23;20229;-79
2021/12/01 05:27:14;;;;;;;0.80;0.50;;;3.40;96.30;;;;;;4878883;29;20433;-78
2021/12/01 05:29:40;;;;;;;0.70;0.40;;;3.40;96.30;;;;;;4895278;29;20188;-78
2021/12/01 05:32:06;;;;;;;0.77;0.40;;;3.40;96.30;;;;;;4898073;29;20224;-77
2021/12/01 05:34:31;;;;;;;0.80;0.47;;;3.40;96.30;;;;;;4896912;29;20185;-77
2021/12/01 05:37:00;;;;;;;0.80;0.50;;;3.40;96.30;;;;;;4897478;29;20949;-78
2021/12/01 05:39:27;;;;;;;0.90;0.50;;;3.40;96.30;;;;;;4896716;29;20185;-78
2021/12/01 05:41:52;;;;;;;1.00;0.70;;;3.50;96.30;;;;;;4897889;29;20846;-77
2021/12/01 05:44:18;;;;;;;1.53;0.50;;;3.40;96.30;;;;;;4897952;29;20425;-78
2021/12/01 05:46:43;;;;;;;0.80;0.50;;;3.30;96.30;;;;;;4897307;29;20264;-79
2021/12/01 05:49:09;;;;;;;0.80;0.50;;;3.40;96.30;;;;;;4896693;29;20243;-78
2021/12/01 05:51:35;;;;;;;1.10;0.60;;;3.40;96.30;;;;;;4897752;29;20232;-78
2021/12/01 05:54:01;;;;;;;0.80;0.50;;;3.40;96.30;;;;;;4896547;29;20676;-78
2021/12/01 05:56:27;;;;;;;0.80;0.50;;;3.40;96.30;;;;;;4895437;29;20213;-79
2021/12/01 05:58:52;;;;;;;0.80;0.50;;;3.30;96.30;;;;;;4896295;29;20448;-79
2021/12/01 06:01:18;;;;;;;1.57;0.73;;;3.30;96.30;;;;;;4897585;29;20473;-80
2021/12/01 06:03:43;;;;;;;0.90;0.57;;;3.30;96.30;;;;;;4889419;29;20193;-78
2021/12/01 06:06:09;;;;;;;0.80;0.50;;;3.30;96.30;;;;;;4869570;29;20186;-78
2021/12/01 06:08:35;;;;;;;0.70;0.40;;;3.30;96.30;;;;;;4876968;29;20189;-79
2021/12/01 06:11:00;;;;;;;0.87;0.60;;;3.30;96.30;;;;;;4874671;29;20617;-79
2021/12/01 06:13:26;;;;;;;0.80;0.50;;;3.30;96.30;;;;;;4862374;29;20178;-78
2021/12/01 06:15:52;;;;;;;0.80;0.47;;;3.30;96.30;;;;;;4858411;29;20214;-78
2021/12/01 06:18:18;;;;;;;4.47;3.10;;;3.30;96.30;;;;;;4860409;29;20278;-79
2021/12/01 06:20:44;;;;;;;6.33;5.57;;;3.20;96.30;;;;;;4860235;29;20476;-79
2021/12/01 06:23:10;;;;;;;0.80;0.50;;;3.20;96.30;;;;;;4859161;29;20415;-79
2021/12/01 06:25:38;;;;;;;0.80;0.60;;;3.20;96.30;;;;;;4860159;29;20194;-78
2021/12/01 06:28:04;;;;;;;1.10;0.50;;;3.30;96.30;;;;;;4859842;29;20930;-79
2021/12/01 06:30:33;;;;;;;1.13;0.80;;;3.30;96.30;;;;;;4860215;29;20435;-79
2021/12/01 06:32:59;;;;;;;1.00;0.60;;;3.30;96.30;;;;;;4874647;29;20186;-79
2021/12/01 06:35:24;;;;;;;0.80;0.50;;;3.30;96.30;;;;;;4884387;29;20436;-79
2021/12/01 06:37:52;;;;;;;1.93;1.63;;;3.30;96.30;;;;;;4875469;29;20534;-79
2021/12/01 06:40:17;;;;;;;0.90;0.60;;;3.30;96.30;;;;;;4860220;29;20170;-77
2021/12/01 06:42:43;;;;;;;1.20;0.60;;;3.30;96.30;;;;;;4860157;29;20791;-77
2021/12/01 06:45:11;;;;;;;1.07;0.50;;;3.30;96.30;;;;;;4883654;29;20657;-77
2021/12/01 06:47:36;;;;;;;1.60;0.90;;;3.30;96.30;;;;;;4880282;29;21077;-77
2021/12/01 06:50:04;;;;;;;1.10;0.90;;;3.30;96.30;;;;;;4875616;29;20474;-78
2021/12/01 06:52:30;;;;;;;2.17;0.80;;;3.30;96.30;;;;;;4871457;29;20245;-78
2021/12/01 06:54:57;;;;;;;0.90;0.50;;;3.20;96.30;;;;;;4862893;29;20423;-79
2021/12/01 06:57:23;;;;;;;0.90;0.50;;;3.30;96.30;;;;;;4869391;29;20552;-78
2021/12/01 06:59:49;;;;;;;1.67;1.33;;;3.30;96.30;;;;;;4886299;29;20794;-78
2021/12/01 07:02:16;;;;;;;0.80;0.60;;;3.40;96.30;;;;;;4891147;29;20462;-78
2021/12/01 07:04:41;;;;;;;0.80;0.50;;;3.40;96.30;;;;;;4895832;29;20256;-78
2021/12/01 07:07:07;;;;;;;0.90;0.60;;;3.40;96.30;;;;;;4895445;29;20456;-78
2021/12/01 07:09:32;;;;;;;2.30;1.80;;;3.50;96.30;;;;;;4899857;29;20228;-78
2021/12/01 07:11:58;;;;;;;1.73;1.60;;;3.40;96.30;;;;;;4899842;29;20318;-78
2021/12/01 07:14:24;;;;;;;1.37;0.93;;;3.50;96.30;;;;;;4881171;29;20237;-79
2021/12/01 07:16:49;;;;;;;0.90;0.50;;;3.60;96.30;;;;;;4880783;29;20669;-78
2021/12/01 07:19:15;;;;;;;1.10;0.60;;;3.60;96.30;;;;;;4880996;29;20211;-79
2021/12/01 07:21:40;;;;;;;0.90;0.57;;;3.60;96.30;;;;;;4880713;29;20220;-78
2021/12/01 07:24:06;;;;;;;1.27;0.70;;;3.70;96.30;;;;;;4881823;29;20185;-79
2021/12/01 07:26:32;;;;;;;1.00;0.73;;;3.70;96.30;;;;;;4881812;29;20193;-78
2021/12/01 07:28:58;;;;;;;0.80;0.50;;;3.70;96.30;;;;;;4880603;29;20553;-78
2021/12/01 07:31:24;;;;;;;0.80;0.50;;;3.60;96.30;;;;;;4883370;29;20790;-79
2021/12/01 07:33:50;;;;;;;1.10;0.73;;;3.70;96.30;;;;;;4879659;29;20426;-78
2021/12/01 07:36:16;;;;;;;8.40;5.40;;;3.80;96.30;;;;;;4881005;29;20212;-78
2021/12/01 07:38:42;;;;;;;1.00;0.73;;;3.70;96.30;;;;;;4883951;29;20177;-78
2021/12/01 07:41:07;;;;;;;1.00;0.90;;;3.70;96.30;;;;;;4894197;29;20966;-79
2021/12/01 07:43:33;;;;;;;0.90;0.60;;;3.70;96.30;;;;;;4880450;29;20212;-79
2021/12/01 07:46:01;;;;;;;1.33;0.70;;;3.70;96.30;;;;;;4880084;29;20193;-79
2021/12/01 07:48:27;;;;;;;0.80;0.53;;;3.70;96.30;;;;;;4881281;29;20673;-78
2021/12/01 07:50:53;;;;;;;0.90;0.50;;;3.70;96.30;;;;;;4880092;29;20534;-78
2021/12/01 07:53:18;;;;;;;0.80;0.60;;;3.70;96.30;;;;;;4880958;29;20485;-78
2021/12/01 07:55:44;;;;;;;0.80;0.50;;;3.80;96.30;;;;;;4861871;29;20601;-79
2021/12/01 07:58:09;;;;;;;0.80;0.60;;;3.80;96.30;;;;;;4861514;29;20178;-79
2021/12/01 08:00:35;;;;;;;1.00;0.53;;;3.80;96.30;;;;;;4877324;29;20285;-79
2021/12/01 08:03:00;;;;;;;1.20;0.70;;;3.70;96.30;;;;;;4880078;29;20557;-79
2021/12/01 08:05:26;;;;;;;1.10;0.50;;;3.70;96.30;;;;;;4879828;29;20234;-79
2021/12/01 08:07:52;;;;;;;0.80;0.50;;;3.70;96.30;;;;;;4879916;29;20642;-79
2021/12/01 08:10:18;;;;;;;1.20;0.70;;;3.70;96.30;;;;;;4879753;29;20601;-79
2021/12/01 08:12:44;;;;;;;3.70;3.37;;;3.70;96.30;;;;;;4879692;29;20454;-79
2021/12/01 08:15:09;;;;;;;0.97;0.70;;;3.80;96.30;;;;;;4879918;29;20189;-79
2021/12/01 08:17:35;;;;;;;1.00;0.80;;;3.80;96.30;;;;;;4880628;29;20202;-79
2021/12/01 08:20:01;;;;;;;2.47;0.60;;;3.80;96.30;;;;;;4878765;29;20189;-79
2021/12/01 08:22:27;;;;;;;0.80;0.60;;;3.70;96.30;;;;;;4879922;29;20448;-79
2021/12/01 08:24:57;;;;;;;1.30;1.20;;;3.70;96.30;;;;;;4880744;29;20198;-79
2021/12/01 08:27:24;;;;;;;0.93;0.70;;;3.70;96.30;;;;;;4879529;29;20442;-78
2021/12/01 08:29:50;;;;;;;1.20;0.80;;;3.70;96.30;;;;;;4881139;29;20414;-79
2021/12/01 08:32:15;;;;;;;1.00;0.60;;;3.70;96.30;;;;;;4880908;29;20453;-78
2021/12/01 08:34:41;;;;;;;1.20;0.70;;;3.70;96.30;;;;;;4880833;29;20182;-80
2021/12/01 08:37:08;;;;;;;0.90;0.70;;;3.70;96.30;;;;;;4880703;29;20252;-80
2021/12/01 08:39:34;;;;;;;1.47;0.70;;;3.70;96.30;;;;;;4880972;29;20184;-80
2021/12/01 08:42:00;;;;;;;0.87;0.60;;;3.70;96.30;;;;;;4880757;29;20441;-80
2021/12/01 08:44:26;;;;;;;1.53;0.80;;;3.70;96.30;;;;;;4879730;29;20426;-79
2021/12/01 08:46:52;;;;;;;0.90;0.60;;;3.70;96.30;;;;;;4883811;29;20937;-79
2021/12/01 08:49:17;;;;;;;0.80;0.60;;;3.70;96.30;;;;;;4884146;29;20189;-79
2021/12/01 08:51:43;;;;;;;1.10;0.77;;;3.70;96.30;;;;;;4879484;29;20269;-79
2021/12/01 08:54:13;;;;;;;0.90;0.70;;;3.70;96.30;;;;;;4879319;29;20586;-79
2021/12/01 08:56:40;;;;;;;1.00;0.63;;;3.80;96.30;;;;;;4880207;29;20203;-79
2021/12/01 08:59:05;;;;;;;0.90;0.60;;;3.90;96.30;;;;;;4876980;29;20414;-79
2021/12/01 09:01:31;;;;;;;1.00;0.70;;;3.90;96.30;;;;;;4867547;29;20471;-79
2021/12/01 09:03:56;;;;;;;1.87;0.73;;;3.90;96.30;;;;;;4878131;29;20288;-79
2021/12/01 09:06:22;;;;;;;1.00;0.70;;;3.90;96.30;;;;;;4880211;29;20162;-79
2021/12/01 09:08:47;;;;;;;2.17;1.00;;;4.00;96.30;;;;;;4878950;29;20197;-80
2021/12/01 09:11:13;;;;;;;1.00;0.60;;;4.10;96.30;;;;;;4880215;29;20205;-80
2021/12/01 09:13:38;;;;;;;0.90;0.53;;;4.10;96.30;;;;;;4879171;29;20276;-80
2021/12/01 09:16:05;;;;;;;0.90;0.80;;;4.10;96.30;;;;;;4879804;29;20713;-79
2021/12/01 09:18:33;;;;;;;0.80;0.50;;;4.20;96.30;;;;;;4879225;29;20177;-80
2021/12/01 09:20:59;;;;;;;0.90;0.70;;;4.20;96.30;;;;;;4878824;29;20452;-79
2021/12/01 09:23:25;;;;;;;1.00;0.70;;;4.20;96.30;;;;;;4879223;29;20430;-80
2021/12/01 09:25:51;;;;;;;0.90;0.60;;;4.20;96.30;;;;;;4869668;29;20465;-80
2021/12/01 09:28:19;;;;;;;0.83;0.60;;;4.20;96.30;;;;;;4859888;29;20635;-80
2021/12/01 09:30:45;;;;;;;5.43;3.47;;;4.30;96.30;;;;;;4869354;29;20210;-80
2021/12/01 09:33:11;;;;;;;1.40;1.07;;;4.30;96.30;;;;;;4880208;29;20474;-80
2021/12/01 09:35:37;;;;;;;1.30;0.60;;;4.30;96.30;;;;;;4880721;29;20446;-80
2021/12/01 09:38:02;;;;;;;0.80;0.50;;;4.40;96.30;;;;;;4879431;29;20458;-80
2021/12/01 09:40:29;;;;;;;0.90;0.57;;;4.40;96.30;;;;;;4879114;29;20635;-80
2021/12/01 09:42:55;;;;;;;0.80;0.50;;;4.40;96.30;;;;;;4879300;29;20715;-80
2021/12/01 09:45:23;;;;;;;0.80;0.50;;;4.40;96.30;;;;;;4880422;29;20486;-80
2021/12/01 09:47:50;;;;;;;0.90;0.50;;;4.40;96.30;;;;;;4879078;29;20430;-80
2021/12/01 09:50:17;;;;;;;1.47;0.60;;;4.50;96.30;;;;;;4880179;29;20426;-80
2021/12/01 09:52:43;;;;;;;0.90;0.53;;;4.50;96.30;;;;;;4880016;29;20426;-80
2021/12/01 09:55:12;;;;;;;1.10;0.90;;;4.50;96.30;;;;;;4879054;29;20481;-80
2021/12/01 09:57:37;;;;;;;0.80;0.50;;;4.60;96.30;;;;;;4878746;29;20209;-80
2021/12/01 10:00:04;;;;;;;0.70;0.40;;;4.50;96.30;;;;;;4878565;29;20803;-80
2021/12/01 10:02:30;;;;;;;0.80;0.50;;;4.60;96.30;;;;;;4878640;29;20201;-80
2021/12/01 10:04:55;;;;;;;0.80;0.47;;;4.60;96.30;;;;;;4880293;29;20430;-80
2021/12/01 10:07:29;;;;;;;0.80;0.50;;;4.60;96.30;;;;;;4878653;29;20182;-80
2021/12/01 10:09:58;;;;;;;1.20;0.47;;;4.60;96.30;;;;;;4878544;29;20185;-80
2021/12/01 10:12:25;;;;;;;0.90;0.57;;;4.60;96.30;;;;;;4877893;29;20448;-80
2021/12/01 10:14:51;;;;;;;0.80;0.40;;;4.50;96.30;;;;;;4879443;29;20429;-80
2021/12/01 10:17:35;;;;;;;0.80;0.50;;;4.50;96.30;;;;;;4879253;29;20454;-80
2021/12/01 10:20:15;;;;;;;0.80;0.50;;;4.40;96.30;;;;;;4879858;29;20410;-80
2021/12/01 10:23:05;;;;;;;1.37;0.60;;;4.40;96.30;;;;;;4877802;29;20474;-80
2021/12/01 10:25:30;;;;;;;13.43;0.70;;;4.40;96.30;;;;;;4872341;29;20452;-80
2021/12/01 10:27:56;;;;;;;0.80;0.50;;;4.40;96.30;;;;;;4878758;29;20419;-79
2021/12/01 10:30:38;;;;;;;0.90;0.70;;;4.40;96.30;;;;;;4878896;29;20646;-80
2021/12/01 10:33:09;;;;;;;1.10;0.60;;;4.30;96.30;;;;;;4877712;29;20178;-80
2021/12/01 10:35:36;;;;;;;1.20;0.70;;;4.30;96.30;;;;;;4878524;29;20424;-80
2021/12/01 10:38:02;;;;;;;1.20;0.70;;;4.40;96.30;;;;;;4878549;29;20466;-79
2021/12/01 10:40:28;;;;;;;1.20;0.73;;;4.40;96.30;;;;;;4875831;29;20502;-79
2021/12/01 10:43:01;;;;;;;0.80;0.50;;;4.50;96.30;;;;;;4877246;29;20962;-80
2021/12/01 10:45:31;;;;;;;1.50;0.90;;;4.60;96.30;;;;;;4876877;29;20186;-79
2021/12/01 10:47:57;;;;;;;0.90;0.70;;;4.70;96.30;;;;;;4859041;29;20792;-80
2021/12/01 10:50:26;;;;;;;1.80;1.07;;;4.70;96.30;;;;;;4873255;29;20434;-79
2021/12/01 10:53:00;;;;;;;0.90;0.80;;;4.80;96.30;;;;;;4886953;29;20413;-80
2021/12/01 10:55:26;;;;;;;0.90;0.80;;;4.80;96.30;;;;;;4870614;29;20771;-79
2021/12/01 10:57:55;;;;;;;1.60;1.10;;;4.90;96.30;;;;;;4878660;29;20486;-80
2021/12/01 11:00:27;;;;;;;1.80;1.33;;;5.00;96.30;;;;;;4877607;29;20438;-79
2021/12/01 11:03:04;;;;;;;1.87;1.47;;;5.00;96.30;;;;;;4878949;29;20445;-79
2021/12/01 11:05:43;;;;;;;1.23;1.00;;;5.00;96.30;;;;;;4878736;29;20403;-79
2021/12/01 11:08:17;;;;;;;1.13;0.90;;;5.00;96.30;;;;;;4860367;29;20419;-79
2021/12/01 11:10:54;;;;;;;0.93;0.70;;;5.00;96.30;;;;;;4860311;29;20502;-80
2021/12/01 11:13:22;;;;;;;2.17;1.67;;;5.00;96.30;;;;;;4860567;29;20427;-80
2021/12/01 11:15:58;;;;;;;2.50;1.60;;;5.10;96.30;;;;;;4857900;29;20419;-79
2021/12/01 11:18:27;;;;;;;3.80;1.10;;;5.10;96.30;;;;;;4860096;29;20402;-79
2021/12/01 11:20:54;;;;;;;1.23;0.87;;;5.20;96.30;;;;;;4859931;29;20440;-79
2021/12/01 11:23:22;;;;;;;1.20;0.90;;;5.30;96.30;;;;;;4858647;29;20447;-79
2021/12/01 11:26:05;;;;;;;1.63;1.20;;;5.20;96.30;;;;;;4861999;29;21019;-80
2021/12/01 11:28:33;;;;;;;2.20;0.87;;;5.20;96.30;;;;;;4863048;29;20414;-80
2021/12/01 11:31:04;;;;;;;1.17;0.77;;;5.30;96.30;;;;;;4862486;29;20745;-80
2021/12/01 11:33:31;;;;;;;1.60;0.90;;;5.30;96.30;;;;;;4860429;29;20464;-80
2021/12/01 11:36:04;;;;;;;1.33;1.00;;;5.30;96.30;;;;;;4860202;29;20943;-80
2021/12/01 11:38:31;;;;;;;1.07;0.80;;;5.40;96.30;;;;;;4862657;29;20434;-80
2021/12/01 11:40:58;;;;;;;0.90;0.53;;;5.30;96.30;;;;;;4871955;29;20466;-80
2021/12/01 11:43:29;;;;;;;1.13;0.70;;;5.40;96.30;;;;;;4860111;29;20761;-79
2021/12/01 11:45:55;;;;;;;1.33;0.87;;;5.40;96.30;;;;;;4877637;29;20414;-79
2021/12/01 11:48:30;;;;;;;1.30;0.90;;;5.40;96.30;;;;;;4895788;29;20421;-79
2021/12/01 11:51:12;;;;;;;1.00;0.90;;;5.40;96.30;;;;;;4894449;29;20508;-79
2021/12/01 11:53:40;;;;;;;1.10;0.70;;;5.40;96.30;;;;;;4875676;29;20434;-79
2021/12/01 11:56:18;;;;;;;1.80;0.77;;;5.40;96.30;;;;;;4894414;29;20475;-79
2021/12/01 11:58:45;;;;;;;1.20;1.00;;;5.40;96.30;;;;;;4900463;29;20457;-79
2021/12/01 12:01:22;;;;;;;1.33;0.90;;;5.50;96.30;;;;;;4899145;29;20440;-79
2021/12/01 12:03:54;;;;;;;1.23;0.77;;;5.60;96.30;;;;;;4884653;29;20896;-79
2021/12/01 12:06:29;;;;;;;1.13;0.77;;;5.70;96.30;;;;;;4881119;29;20848;-79
2021/12/01 12:08:54;;;;;;;0.80;0.50;;;5.70;96.30;;;;;;4880049;29;20846;-79
2021/12/01 12:11:47;;;;;;;1.23;0.73;;;5.80;96.30;;;;;;4879791;29;20476;-79
2021/12/01 12:14:17;;;;;;;1.10;0.70;;;5.70;96.30;;;;;;4879753;29;20186;-79
2021/12/01 12:17:03;;;;;;;0.87;0.60;;;5.80;96.30;;;;;;4879535;29;20462;-79
2021/12/01 12:19:48;;;;;;;2.40;1.50;;;5.70;96.30;;;;;;4879881;29;20414;-79
2021/12/01 12:22:18;;;;;;;1.10;0.63;;;5.70;96.30;;;;;;4885019;29;20502;-79
2021/12/01 12:24:53;;;;;;;1.97;0.90;;;5.80;96.30;;;;;;4898091;29;20468;-79
2021/12/01 12:27:42;;;;;;;1.20;0.50;;;5.70;96.30;;;;;;4888467;29;20434;-79
2021/12/01 12:30:29;;;;;;;2.30;2.10;;;5.80;96.30;;;;;;4861133;29;21034;-79
2021/12/01 12:33:14;;;;;;;6.17;4.50;;;5.70;96.30;;;;;;4862458;29;20411;-79
2021/12/01 12:35:46;;;;;;;0.90;0.70;;;5.80;96.30;;;;;;4862448;29;20486;-79
2021/12/01 12:38:12;;;;;;;1.10;0.87;;;5.70;96.30;;;;;;4860930;29;20439;-79
2021/12/01 12:40:38;;;;;;;1.30;0.90;;;5.70;96.30;;;;;;4866128;29;20516;-79
2021/12/01 12:43:13;;;;;;;1.70;1.50;;;5.70;96.30;;;;;;4879429;29;20182;-79
2021/12/01 12:45:41;;;;;;;2.80;1.60;;;5.80;96.30;;;;;;4880299;29;20501;-79
2021/12/01 12:48:29;;;;;;;0.90;0.70;;;5.80;96.30;;;;;;4889638;29;20422;-79
2021/12/01 12:51:15;;;;;;;1.70;1.40;;;5.80;96.30;;;;;;4898999;29;20522;-79
2021/12/01 12:54:15;;;;;;;3.70;3.23;;;5.80;96.30;;;;;;4861883;29;20437;-79
2021/12/01 12:56:49;;;;;;;1.50;1.33;;;5.90;96.30;;;;;;4811653;29;20463;-79
2021/12/01 12:59:25;;;;;;;1.43;0.90;;;5.90;96.30;;;;;;4867068;29;20516;-79
2021/12/01 13:02:16;;;;;;;3.30;0.90;;;5.90;96.30;;;;;;4885720;29;20501;-79
2021/12/01 13:04:48;;;;;;;1.67;1.17;;;5.90;96.30;;;;;;4884774;29;20480;-79
2021/12/01 13:07:32;;;;;;;3.60;2.00;;;5.90;96.30;;;;;;4889892;29;20422;-79
2021/12/01 13:10:19;;;;;;;2.47;1.30;;;5.90;96.30;;;;;;4879434;29;20430;-79
2021/12/01 13:12:51;;;;;;;2.43;1.60;;;6.00;96.30;;;;;;4879048;29;20444;-79
2021/12/01 13:15:22;;;;;;;1.20;0.90;;;6.00;96.30;;;;;;4878910;29;20449;-79
2021/12/01 13:17:49;;;;;;;1.10;0.70;;;6.00;96.30;;;;;;4897068;29;20513;-79
2021/12/01 13:20:18;;;;;;;0.80;0.60;;;6.00;96.30;;;;;;4898694;29;20443;-79
2021/12/01 13:23:06;;;;;;;1.60;0.70;;;6.00;96.30;;;;;;4897505;29;20941;-79
2021/12/01 13:25:33;;;;;;;1.87;1.50;;;6.10;96.30;;;;;;4897202;29;20449;-79
2021/12/01 13:28:03;;;;;;;1.23;0.60;;;6.00;96.30;;;;;;4898303;29;20454;-79
2021/12/01 13:30:31;;;;;;;1.17;1.00;;;6.10;96.30;;;;;;4897037;29;20425;-79
2021/12/01 13:33:12;;;;;;;1.43;1.10;;;6.10;96.30;;;;;;4898331;29;20965;-79
2021/12/01 13:35:38;;;;;;;2.73;1.03;;;6.20;96.30;;;;;;4891706;29;20517;-79
2021/12/01 13:38:04;;;;;;;1.53;1.00;;;6.20;96.30;;;;;;4896383;29;20954;-79
2021/12/01 13:40:31;;;;;;;0.93;0.60;;;6.20;96.30;;;;;;4891561;29;20437;-79
2021/12/01 13:42:56;;;;;;;1.20;0.80;;;6.20;96.30;;;;;;4878099;29;20426;-79
2021/12/01 13:45:26;;;;;;;2.20;1.30;;;6.20;96.30;;;;;;4879330;29;20428;-79
2021/12/01 13:47:52;;;;;;;1.57;1.03;;;6.20;96.30;;;;;;4877858;29;20190;-79
2021/12/01 13:50:18;;;;;;;1.57;1.10;;;6.20;96.30;;;;;;4879263;29;20837;-79
2021/12/01 13:52:46;;;;;;;1.20;0.80;;;6.20;96.30;;;;;;4877895;29;20188;-79
2021/12/01 13:55:24;;;;;;;1.20;0.83;;;6.20;96.30;;;;;;4892099;29;20196;-79
2021/12/01 13:58:05;;;;;;;1.50;0.73;;;6.20;96.30;;;;;;4897917;29;20449;-78
2021/12/01 14:00:37;;;;;;;1.00;0.80;;;6.20;96.30;;;;;;4898186;29;20401;-78
2021/12/01 14:03:04;;;;;;;1.33;1.00;;;6.20;96.30;;;;;;4862699;29;20806;-79
2021/12/01 14:05:30;;;;;;;2.43;2.10;;;6.20;96.30;;;;;;4879675;29;20420;-79
2021/12/01 14:08:19;;;;;;;4.50;0.77;;;6.20;96.30;;;;;;4897899;29;20417;-78
2021/12/01 14:10:51;;;;;;;1.20;0.90;;;6.20;96.30;;;;;;4887170;29;20445;-79
2021/12/01 14:13:21;;;;;;;1.00;0.60;;;6.20;96.30;;;;;;4897204;29;20502;-78
2021/12/01 14:15:47;;;;;;;0.90;0.67;;;6.30;96.30;;;;;;4897934;29;20430;-79
2021/12/01 14:18:16;;;;;;;0.80;0.50;;;6.20;96.30;;;;;;4896262;29;20516;-78
2021/12/01 14:20:42;;;;;;;4.70;0.70;;;6.20;96.30;;;;;;4898176;29;20936;-78
2021/12/01 14:23:08;;;;;;;1.00;0.70;;;6.20;96.30;;;;;;4897928;29;20425;-79
2021/12/01 14:25:35;;;;;;;1.93;1.47;;;6.20;96.30;;;;;;4895732;29;20463;-78
2021/12/01 14:28:09;;;;;;;0.90;0.60;;;6.20;96.30;;;;;;4862385;29;20435;-79
2021/12/01 14:30:37;;;;;;;1.30;1.17;;;6.20;96.30;;;;;;4887624;29;20529;-79
2021/12/01 14:33:11;;;;;;;0.80;0.47;;;6.30;96.30;;;;;;4898417;29;20434;-79
2021/12/01 14:35:36;;;;;;;1.40;1.23;;;6.20;96.30;;;;;;4898184;29;20478;-79
2021/12/01 14:38:04;;;;;;;8.17;5.90;;;6.10;96.30;;;;;;4891809;29;20482;-78
2021/12/01 14:40:30;;;;;;;2.43;0.50;;;6.10;96.30;;;;;;4876101;29;20824;-79
2021/12/01 14:42:58;;;;;;;0.90;0.60;;;6.10;96.30;;;;;;4878322;29;20436;-77
2021/12/01 14:45:26;;;;;;;1.43;0.60;;;6.20;96.30;;;;;;4878317;29;20426;-77
2021/12/01 14:48:01;;;;;;;0.80;0.50;;;6.10;96.30;;;;;;4869348;29;20438;-77
2021/12/01 14:50:27;;;;;;;1.10;0.60;;;6.10;96.30;;;;;;4858778;29;20427;-77
2021/12/01 14:52:55;;;;;;;0.90;0.50;;;6.10;96.30;;;;;;4860034;29;20457;-77
2021/12/01 14:55:24;;;;;;;1.20;0.60;;;6.10;96.30;;;;;;4875665;29;20193;-77
2021/12/01 14:57:53;;;;;;;1.33;0.60;;;6.10;96.30;;;;;;4880272;29;20955;-77
2021/12/01 15:00:21;;;;;;;1.03;0.57;;;6.10;96.30;;;;;;4878652;29;20418;-77
2021/12/01 15:02:47;;;;;;;1.00;0.50;;;6.00;96.30;;;;;;4878600;29;20410;-77
2021/12/01 15:05:17;;;;;;;1.20;0.60;;;6.10;96.30;;;;;;4878627;29;20414;-77
2021/12/01 15:07:54;;;;;;;1.43;0.53;;;6.00;96.30;;;;;;4877189;29;20658;-77
2021/12/01 15:10:24;;;;;;;0.80;0.50;;;6.00;96.30;;;;;;4878015;29;20793;-78
2021/12/01 15:13:12;;;;;;;1.30;0.63;;;6.00;96.30;;;;;;4892687;29;20516;-77
2021/12/01 15:16:00;;;;;;;0.93;0.60;;;6.00;96.30;;;;;;4897101;29;20426;-77
2021/12/01 15:18:26;;;;;;;1.83;1.47;;;5.90;96.30;;;;;;4880272;29;20437;-77
2021/12/01 15:20:59;;;;;;;1.00;0.60;;;5.90;96.30;;;;;;4859681;29;20969;-77
2021/12/01 15:23:43;;;;;;;1.50;0.60;;;5.90;96.30;;;;;;4864853;29;20185;-77
2021/12/01 15:26:09;;;;;;;3.60;0.90;;;5.80;96.30;;;;;;4877671;29;20438;-76
2021/12/01 15:28:35;;;;;;;3.90;3.50;;;5.80;96.30;;;;;;4890132;29;20428;-76
2021/12/01 15:31:07;;;;;;;1.00;0.77;;;5.70;96.30;;;;;;4891172;29;20442;-77
2021/12/01 15:33:34;;;;;;;2.13;1.17;;;5.80;96.30;;;;;;4880468;29;20272;-77
2021/12/01 15:36:01;;;;;;;2.77;1.40;;;5.70;96.30;;;;;;4881518;29;20902;-77
2021/12/01 15:38:26;;;;;;;5.60;2.57;;;5.80;96.30;;;;;;4876174;29;20468;-77
2021/12/01 15:40:52;;;;;;;1.40;0.90;;;5.90;96.30;;;;;;4866517;29;20478;-77
2021/12/01 15:43:17;;;;;;;3.70;1.27;;;5.90;96.30;;;;;;4881612;29;20599;-76
2021/12/01 15:45:43;;;;;;;2.97;1.37;;;5.90;96.30;;;;;;4899942;29;20181;-77
2021/12/01 15:48:08;;;;;;;1.10;0.60;;;5.90;96.30;;;;;;4883164;29;20186;-77
2021/12/01 15:50:36;;;;;;;7.57;2.53;;;5.90;96.30;;;;;;4881839;29;20194;-79
2021/12/01 15:53:03;;;;;;;2.73;1.90;;;5.90;96.30;;;;;;4881617;29;20272;-77
2021/12/01 15:55:28;;;;;;;1.47;0.93;;;5.90;96.30;;;;;;4881652;29;20414;-77
2021/12/01 15:57:54;;;;;;;2.10;0.80;;;5.90;96.30;;;;;;4879792;29;20453;-77
2021/12/01 16:00:21;;;;;;;2.60;1.60;;;5.90;96.30;;;;;;4880248;29;20178;-77
2021/12/01 16:02:49;;;;;;;7.17;3.70;;;5.90;96.30;;;;;;4881432;29;20421;-77
2021/12/01 16:05:15;;;;;;;1.53;1.23;;;5.90;96.30;;;;;;4867194;29;20455;-77
2021/12/01 16:07:41;;;;;;;1.63;1.50;;;5.90;96.30;;;;;;4878847;29;20488;-76
2021/12/01 16:10:07;;;;;;;1.13;0.80;;;5.90;96.30;;;;;;4881002;29;20182;-77
2021/12/01 16:12:33;;;;;;;4.47;3.10;;;6.00;96.30;;;;;;4880163;29;20438;-77
2021/12/01 16:14:59;;;;;;;1.07;0.60;;;6.00;96.30;;;;;;4881096;29;20677;-77
2021/12/01 16:17:25;;;;;;;4.60;2.47;;;6.10;96.30;;;;;;4879911;29;20193;-77
2021/12/01 16:19:51;;;;;;;1.27;1.03;;;6.10;96.30;;;;;;4879808;29;20504;-77
2021/12/01 16:22:17;;;;;;;7.63;4.40;;;6.00;96.30;;;;;;4880737;29;20265;-77
2021/12/01 16:24:42;;;;;;;7.50;4.90;;;6.00;96.30;;;;;;4869482;29;20779;-77
2021/12/01 16:27:08;;;;;;;2.20;2.00;;;6.10;96.30;;;;;;4861861;29;20673;-77
2021/12/01 16:29:33;;;;;;;5.90;4.53;;;6.00;96.30;;;;;;4871498;29;20186;-78
2021/12/01 16:31:59;;;;;;;2.43;2.23;;;6.00;96.30;;;;;;4878019;29;20679;-77
2021/12/01 16:34:29;;;;;;;1.60;1.00;;;6.00;96.30;;;;;;4882037;29;20193;-77
2021/12/01 16:36:56;;;;;;;4.67;3.20;;;6.00;96.30;;;;;;4881742;29;20453;-77
2021/12/01 16:39:22;;;;;;;6.70;4.10;;;6.00;96.30;;;;;;4886934;29;20912;-77
2021/12/01 16:41:48;;;;;;;2.03;1.83;;;6.00;96.30;;;;;;4892692;29;20436;-77
2021/12/01 16:44:13;;;;;;;7.20;5.30;;;6.10;96.30;;;;;;4899029;29;20793;-77
2021/12/01 16:46:44;;;;;;;1.40;1.10;;;6.20;96.30;;;;;;4880189;29;20185;-77
2021/12/01 16:49:10;;;;;;;14.80;9.60;;;6.20;96.30;;;;;;4879028;29;20233;-77
2021/12/01 16:51:35;;;;;;;2.93;2.67;;;6.20;96.30;;;;;;4884655;29;20842;-77
2021/12/01 16:54:01;;;;;;;3.40;0.93;;;6.20;96.30;;;;;;4880011;29;20186;-77
2021/12/01 16:56:26;;;;;;;1.97;1.13;;;6.10;96.30;;;;;;4879924;29;20204;-77
2021/12/01 16:58:52;;;;;;;1.30;1.00;;;6.10;96.30;;;;;;4879819;29;20193;-77
2021/12/01 17:01:17;;;;;;;0.90;0.70;;;6.20;96.30;;;;;;4869606;29;20640;-77
2021/12/01 17:03:50;;;;;;;0.80;0.50;;;6.20;96.30;;;;;;4869725;29;20177;-77
2021/12/01 17:06:25;;;;;;;7.10;4.93;;;6.30;96.30;;;;;;4866562;29;20181;-77
2021/12/01 17:08:51;;;;;;;2.07;1.53;;;6.20;96.30;;;;;;4877536;29;21052;-77